Time;durP1;ratioP1;P1;durP2;ratioP2;P2;SDS_P1;SDS_P2;PMS_P1;PMS_P2;Temp;Humidity;BMP_temperature;BMP_pressure;BME280_temperature;BME280_humidity;BME280_pressure;Samples;Min_cycle;Max_cycle;Signal;HPM_P1;HPM_P2
2024/01/15 00:02:18;;;;;;;;;62.50;51.25;;;;;19.09;36.77;100838.03;6368513;22;45267;-79
2024/01/15 00:04:43;;;;;;;;;62.50;48.00;;;;;19.31;36.76;100862.19;6366033;22;45539;-79
2024/01/15 00:07:09;;;;;;;;;62.25;51.00;;;;;19.11;36.48;100836.88;6339694;22;47941;-79
2024/01/15 00:09:35;;;;;;;;;59.00;48.50;;;;;19.27;36.65;100859.88;6367570;22;45205;-80
2024/01/15 00:12:00;;;;;;;;;66.50;50.75;;;;;19.25;36.80;100851.31;6368127;22;45289;-79
2024/01/15 00:14:26;;;;;;;;;58.50;47.25;;;;;19.29;36.57;100852.63;6368315;22;45438;-79
2024/01/15 00:16:54;;;;;;;;;59.25;49.00;;;;;19.13;36.63;100827.00;6367724;22;46453;-79
2024/01/15 00:19:23;;;;;;;;;58.00;46.25;;;;;19.28;36.74;100847.53;6367833;22;45365;-80
2024/01/15 00:21:49;;;;;;;;;58.75;48.25;;;;;19.27;36.68;100838.78;6368511;22;45247;-79
2024/01/15 00:24:14;;;;;;;;;59.25;48.50;;;;;19.04;36.67;100786.59;6367786;22;45261;-79
2024/01/15 00:26:40;;;;;;;;;57.00;47.00;;;;;19.16;36.69;100796.84;6367626;22;46818;-79
2024/01/15 00:29:07;;;;;;;;;61.00;48.75;;;;;19.23;36.38;100803.13;6367956;22;45280;-79
2024/01/15 00:31:32;;;;;;;;;56.25;46.75;;;;;19.23;36.46;100799.69;6368224;22;45284;-79
2024/01/15 00:33:57;;;;;;;;;56.00;45.25;;;;;19.19;36.59;100804.47;6367563;22;52685;-79
2024/01/15 00:36:23;;;;;;;;;58.25;47.00;;;;;19.22;36.52;100812.06;6368169;22;45252;-79
2024/01/15 00:38:48;;;;;;;;;56.25;46.00;;;;;19.25;36.61;100811.72;6367720;22;45270;-79
2024/01/15 00:41:15;;;;;;;;;57.00;45.50;;;;;19.25;36.51;100814.38;6339366;22;45541;-79
2024/01/15 00:43:40;;;;;;;;;57.25;45.50;;;;;19.10;36.45;100789.59;6368489;22;45256;-80
2024/01/15 00:46:05;;;;;;;;;52.75;43.00;;;;;19.24;36.40;100812.72;6368155;22;45269;-79
2024/01/15 00:48:31;;;;;;;;;53.50;44.25;;;;;19.09;36.18;100783.47;6368133;22;45315;-79
2024/01/15 00:50:57;;;;;;;;;52.50;42.00;;;;;19.25;36.45;100800.34;6368422;22;45467;-79
2024/01/15 00:53:22;;;;;;;;;54.25;44.25;;;;;19.19;36.33;100793.91;6367478;22;45230;-79
2024/01/15 00:55:48;;;;;;;;;51.25;42.00;;;;;19.26;36.66;100796.72;6339333;22;48145;-79
2024/01/15 00:58:14;;;;;;;;;55.75;44.25;;;;;19.22;36.34;100795.41;6368174;22;45270;-78
2024/01/15 01:00:39;;;;;;;;;53.00;42.00;;;;;19.13;36.38;100776.88;6368413;22;45204;-80
2024/01/15 01:03:04;;;;;;;;;53.00;41.50;;;;;19.22;36.34;100790.13;6368406;22;45231;-79
2024/01/15 01:05:30;;;;;;;;;53.50;43.25;;;;;19.27;36.20;100804.47;6367491;22;47240;-79
2024/01/15 01:07:55;;;;;;;;;53.00;42.75;;;;;18.97;36.43;100759.22;6367471;22;47932;-80
2024/01/15 01:10:20;;;;;;;;;48.00;40.00;;;;;19.27;36.35;100795.72;6368069;22;48316;-80
2024/01/15 01:12:45;;;;;;;;;49.25;41.50;;;;;19.08;36.42;100766.00;6368258;22;45360;-79
2024/01/15 01:15:11;;;;;;;;;50.75;42.00;;;;;19.27;36.17;100804.47;6367862;22;46936;-80
2024/01/15 01:17:36;;;;;;;;;49.50;40.50;;;;;19.23;36.54;100800.50;6367587;22;45314;-79
2024/01/15 01:20:04;;;;;;;;;50.00;40.00;;;;;19.04;36.44;100764.69;6368194;22;45262;-79
2024/01/15 01:22:29;;;;;;;;;47.25;36.25;;;;;19.18;36.02;100787.81;6367351;22;45426;-79
2024/01/15 01:24:55;;;;;;;;;51.25;41.25;;;;;19.25;36.32;100797.72;6367364;22;46953;-79
2024/01/15 01:27:20;;;;;;;;;48.50;38.25;;;;;18.92;36.21;100751.78;6367779;22;45394;-79
2024/01/15 01:29:45;;;;;;;;;47.00;39.00;;;;;19.17;36.09;100787.94;6367531;22;45664;-80
2024/01/15 01:32:11;;;;;;;;;46.50;38.25;;;;;19.24;36.14;100786.34;6367186;22;51318;-79
2024/01/15 01:34:43;;;;;;;;;46.25;36.00;;;;;19.18;36.29;100771.16;6366999;22;47277;-78
2024/01/15 01:37:13;;;;;;;;;44.25;36.25;;;;;19.19;36.08;100775.44;6367767;22;45427;-79
2024/01/15 01:39:38;;;;;;;;;51.00;40.75;;;;;18.99;36.31;100733.53;6367846;22;45281;-79
2024/01/15 01:42:04;;;;;;;;;48.75;38.75;;;;;19.23;36.15;100773.31;6367612;22;45205;-79
2024/01/15 01:44:30;;;;;;;;;45.75;38.50;;;;;19.22;36.15;100769.84;6367884;22;45295;-79
2024/01/15 01:46:57;;;;;;;;;45.25;38.00;;;;;19.18;36.03;100760.59;6367982;22;45181;-79
2024/01/15 01:49:24;;;;;;;;;47.25;39.00;;;;;19.16;36.30;100766.00;6367078;22;45700;-80
2024/01/15 01:51:50;;;;;;;;;37.75;33.25;;;;;19.17;36.03;100778.22;6367882;22;45438;-79
2024/01/15 01:54:16;;;;;;;;;49.75;39.00;;;;;19.12;35.98;100769.16;6366726;22;46077;-79
2024/01/15 01:56:42;;;;;;;;;41.50;36.00;;;;;19.05;35.98;100761.88;6367665;22;45245;-79
2024/01/15 01:59:11;;;;;;;;;42.50;36.50;;;;;18.97;36.01;100737.31;6339360;22;45168;-79
2024/01/15 02:01:36;;;;;;;;;45.00;37.50;;;;;19.22;35.98;100777.75;6367630;22;45282;-80
2024/01/15 02:04:03;;;;;;;;;42.00;33.50;;;;;18.99;36.23;100740.59;6367079;22;46241;-79
2024/01/15 02:06:29;;;;;;;;;43.50;35.75;;;;;19.04;36.15;100751.50;6367693;22;45202;-79
2024/01/15 02:08:55;;;;;;;;;46.25;38.00;;;;;19.13;35.98;100768.13;6367904;22;45324;-80
2024/01/15 02:11:20;;;;;;;;;47.00;36.00;;;;;19.22;36.08;100777.75;6367377;22;45639;-80
2024/01/15 02:13:46;;;;;;;;;42.50;36.00;;;;;19.08;36.10;100755.44;6367121;22;47234;-79
2024/01/15 02:16:11;;;;;;;;;41.75;36.25;;;;;19.22;36.04;100776.94;6367496;22;45232;-79
2024/01/15 02:18:41;;;;;;;;;43.50;36.00;;;;;19.16;36.04;100766.00;6367154;22;45205;-79
2024/01/15 02:21:06;;;;;;;;;42.25;35.75;;;;;19.21;35.87;100786.66;6367143;22;45292;-80
2024/01/15 02:23:32;;;;;;;;;39.50;33.75;;;;;18.90;36.10;100737.94;6366974;22;47128;-79
2024/01/15 02:25:57;;;;;;;;;40.00;35.00;;;;;18.95;36.16;100742.72;6367547;22;45417;-79
2024/01/15 02:28:22;;;;;;;;;38.75;35.25;;;;;19.07;36.06;100751.97;6367601;22;45620;-79
2024/01/15 02:30:47;;;;;;;;;40.50;34.25;;;;;19.13;36.23;100758.41;6367703;22;45249;-79
2024/01/15 02:33:13;;;;;;;;;42.50;34.75;;;;;19.13;36.00;100754.94;6366854;22;46266;-79
2024/01/15 02:35:38;;;;;;;;;37.25;33.25;;;;;19.08;36.28;100752.81;6367485;22;45330;-79
2024/01/15 02:38:05;;;;;;;;;40.25;34.50;;;;;19.23;36.05;100781.22;6367143;22;45288;-80
2024/01/15 02:40:30;;;;;;;;;38.00;33.00;;;;;19.22;36.13;100783.03;6367071;22;45340;-79
2024/01/15 02:42:55;;;;;;;;;41.00;34.00;;;;;18.95;36.11;100733.00;6367401;22;45315;-79
2024/01/15 02:45:22;;;;;;;;;45.75;35.75;;;;;19.23;35.80;100783.88;6367182;22;45343;-78
2024/01/15 02:47:47;;;;;;;;;37.75;31.00;;;;;19.23;35.84;100778.59;6367198;22;45287;-79
2024/01/15 02:50:13;;;;;;;;;36.25;32.00;;;;;19.05;35.99;100750.50;6367426;22;45470;-79
2024/01/15 02:52:38;;;;;;;;;33.00;30.50;;;;;19.23;35.92;100774.13;6366643;22;47096;-78
2024/01/15 02:55:04;;;;;;;;;38.25;32.00;;;;;19.23;35.96;100771.47;6367270;22;45186;-79
2024/01/15 02:57:29;;;;;;;;;36.00;31.50;;;;;19.07;36.00;100738.78;6338796;22;45173;-79
2024/01/15 02:59:55;;;;;;;;;31.75;30.00;;;;;19.17;35.77;100753.66;6367293;22;45415;-79
2024/01/15 03:02:20;;;;;;;;;36.25;31.50;;;;;19.17;35.92;100759.75;6366209;22;47213;-79
2024/01/15 03:04:45;;;;;;;;;43.75;34.50;;;;;19.06;35.61;100737.16;6367930;22;46990;-79
2024/01/15 03:07:11;;;;;;;;;33.75;32.75;;;;;19.14;36.04;100749.53;6368502;22;45305;-79
2024/01/15 03:09:37;;;;;;;;;34.75;32.75;;;;;19.16;35.85;100752.81;6369070;22;45483;-79
2024/01/15 03:12:02;;;;;;;;;34.00;30.75;;;;;19.22;35.74;100763.75;6368497;22;46092;-79
2024/01/15 03:14:27;;;;;;;;;33.75;31.75;;;;;19.02;36.09;100738.44;6368185;22;45377;-79
2024/01/15 03:16:53;;;;;;;;;42.50;33.00;;;;;19.09;36.23;100756.28;6368413;22;45290;-79
2024/01/15 03:19:18;;;;;;;;;37.00;32.25;;;;;19.16;35.92;100755.47;6368702;22;45235;-79
2024/01/15 03:21:44;;;;;;;;;33.75;30.25;;;;;19.10;35.68;100734.19;6368163;22;47092;-79
2024/01/15 03:24:09;;;;;;;;;35.50;31.25;;;;;19.20;35.62;100748.09;6368766;22;45295;-79
2024/01/15 03:26:34;;;;;;;;;31.25;29.25;;;;;19.21;36.00;100749.72;6368458;22;47322;-80
2024/01/15 03:29:00;;;;;;;;;33.50;31.75;;;;;19.20;35.71;100748.09;6368971;22;45322;-80
2024/01/15 03:31:25;;;;;;;;;29.50;29.50;;;;;19.16;35.86;100733.53;6367705;22;47329;-80
2024/01/15 03:33:50;;;;;;;;;33.75;31.50;;;;;19.05;35.63;100722.31;6367889;22;47493;-79
2024/01/15 03:36:16;;;;;;;;;31.00;27.75;;;;;19.16;35.88;100733.53;6367920;22;50645;-79
2024/01/15 03:38:42;;;;;;;;;33.50;30.00;;;;;19.21;35.82;100743.63;6368066;22;45544;-80
2024/01/15 03:41:07;;;;;;;;;30.75;29.75;;;;;19.21;35.79;100743.63;6368026;22;46277;-79
2024/01/15 03:43:33;;;;;;;;;35.25;31.25;;;;;19.14;35.88;100733.72;6368532;22;45224;-79
2024/01/15 03:45:58;;;;;;;;;32.50;30.25;;;;;19.21;35.61;100749.72;6368061;22;45205;-79
2024/01/15 03:48:23;;;;;;;;;30.75;29.00;;;;;19.12;35.86;100735.69;6340096;22;45185;-79
2024/01/15 03:50:49;;;;;;;;;29.00;27.25;;;;;19.11;35.73;100727.91;6367771;22;45984;-80
2024/01/15 03:53:14;;;;;;;;;31.75;27.75;;;;;19.15;35.72;100727.44;6368495;22;45189;-80
2024/01/15 03:55:39;;;;;;;;;24.00;23.00;;;;;18.94;35.77;100697.06;6367810;22;45301;-80
2024/01/15 03:58:05;;;;;;;;;30.25;29.50;;;;;19.09;35.77;100720.19;6368210;22;45201;-79
2024/01/15 04:00:30;;;;;;;;;28.75;28.50;;;;;18.99;35.75;100707.16;6367539;22;45952;-79
2024/01/15 04:02:55;;;;;;;;;27.25;23.50;;;;;19.05;35.77;100708.28;6368542;22;45125;-80
2024/01/15 04:05:21;;;;;;;;;30.75;25.75;;;;;19.19;35.79;100727.97;6339854;22;45266;-80
2024/01/15 04:07:46;;;;;;;;;31.00;27.25;;;;;19.15;35.97;100718.72;6340099;22;45387;-80
2024/01/15 04:10:11;;;;;;;;;34.00;31.00;;;;;19.20;35.70;100718.25;6368323;22;45276;-80
2024/01/15 04:12:38;;;;;;;;;34.00;28.75;;;;;18.83;35.73;100652.59;6368280;22;45296;-80
2024/01/15 04:15:03;;;;;;;;;30.25;26.50;;;;;19.17;35.70;100711.47;6338698;22;52940;-79
2024/01/15 04:17:29;;;;;;;;;30.25;25.75;;;;;19.02;35.61;100692.81;6367945;22;45287;-80
2024/01/15 04:19:55;;;;;;;;;27.50;26.00;;;;;19.20;35.86;100715.59;6367694;22;46408;-80
2024/01/15 04:22:20;;;;;;;;;32.25;27.25;;;;;19.22;35.81;100717.09;6367922;22;45347;-80
2024/01/15 04:24:45;;;;;;;;;26.25;23.50;;;;;19.14;35.57;100703.88;6339738;22;45429;-79
2024/01/15 04:27:11;;;;;;;;;27.00;24.25;;;;;19.22;35.81;100709.19;6368555;22;45365;-79
2024/01/15 04:29:39;;;;;;;;;24.50;24.50;;;;;19.23;35.62;100699.47;6367115;22;46257;-80
2024/01/15 04:32:04;;;;;;;;;26.50;26.50;;;;;19.13;35.83;100699.56;6367747;22;45680;-80
2024/01/15 04:34:29;;;;;;;;;26.00;24.25;;;;;19.17;35.64;100709.66;6368223;22;45249;-81
2024/01/15 04:36:55;;;;;;;;;26.00;23.75;;;;;19.22;35.77;100711.00;6368368;22;45148;-80
2024/01/15 04:39:20;;;;;;;;;27.25;26.25;;;;;19.22;35.84;100705.72;6368153;22;46536;-79
2024/01/15 04:41:45;;;;;;;;;25.00;23.75;;;;;19.21;35.78;100696.97;6367380;22;54086;-78
2024/01/15 04:44:10;;;;;;;;;26.25;26.25;;;;;19.21;35.71;100701.41;6367131;22;57425;-79
2024/01/15 04:46:36;;;;;;;;;25.75;24.50;;;;;19.17;35.81;100685.09;6367877;22;45150;-77
2024/01/15 04:49:01;;;;;;;;;27.75;24.25;;;;;19.21;35.63;100688.22;6367685;22;46093;-79
2024/01/15 04:51:27;;;;;;;;;23.00;23.00;;;;;19.14;35.80;100675.69;6367552;22;45263;-79
2024/01/15 04:53:52;;;;;;;;;25.50;22.50;;;;;19.20;35.78;100683.97;6367875;22;50717;-80
2024/01/15 04:56:18;;;;;;;;;25.00;23.50;;;;;19.17;35.69;100682.44;6368082;22;48282;-79
2024/01/15 04:58:43;;;;;;;;;23.25;19.50;;;;;19.16;35.72;100688.69;6367728;22;46107;-81
2024/01/15 05:01:09;;;;;;;;;28.50;24.75;;;;;19.06;35.85;100675.69;6367817;22;45282;-78
2024/01/15 05:03:34;;;;;;;;;26.25;23.75;;;;;19.21;35.59;100701.41;6367971;22;45287;-78
2024/01/15 05:05:59;;;;;;;;;22.00;20.50;;;;;19.20;35.96;100700.63;6367517;22;57129;-80
2024/01/15 05:08:25;;;;;;;;;21.25;20.75;;;;;19.11;35.47;100680.44;6367261;22;63540;-80
2024/01/15 05:10:50;;;;;;;;;24.25;24.25;;;;;19.22;35.67;100700.44;6367658;22;52230;-80
2024/01/15 05:13:15;;;;;;;;;24.25;21.75;;;;;19.21;35.46;100693.50;6367343;22;50948;-80
2024/01/15 05:15:41;;;;;;;;;24.25;21.25;;;;;19.22;35.76;100700.44;6367230;22;59613;-80
2024/01/15 05:18:06;;;;;;;;;27.75;24.25;;;;;19.03;35.55;100666.28;6367567;22;45908;-80
2024/01/15 05:20:31;;;;;;;;;25.25;22.00;;;;;19.16;35.76;100691.34;6367645;22;45193;-79
2024/01/15 05:22:57;;;;;;;;;26.25;23.75;;;;;19.16;36.08;100694.81;6367942;22;46424;-80
2024/01/15 05:25:22;;;;;;;;;19.50;19.50;;;;;19.21;35.79;100688.22;6367994;22;45342;-79
2024/01/15 05:27:48;;;;;;;;;21.75;19.50;;;;;19.00;35.51;100649.94;6366820;22;47321;-79
2024/01/15 05:30:14;;;;;;;;;22.00;21.00;;;;;19.10;35.61;100669.06;6367784;22;45271;-79
2024/01/15 05:32:39;;;;;;;;;21.25;21.25;;;;;19.15;35.63;100671.25;6339638;22;45253;-80
2024/01/15 05:35:05;;;;;;;;;21.75;20.50;;;;;19.03;35.73;100655.72;6367338;22;56903;-79
2024/01/15 05:37:30;;;;;;;;;24.75;20.50;;;;;19.14;35.50;100672.22;6367735;22;45514;-79
2024/01/15 05:39:55;;;;;;;;;24.00;21.00;;;;;19.19;35.80;100683.13;6367543;22;45170;-80
2024/01/15 05:42:21;;;;;;;;;19.25;18.00;;;;;19.11;35.52;100681.28;6367385;22;47988;-79
2024/01/15 05:44:46;;;;;;;;;23.25;22.25;;;;;19.14;35.63;100682.75;6368161;22;45491;-79
2024/01/15 05:47:12;;;;;;;;;21.50;19.25;;;;;19.11;35.47;100673.38;6366918;22;55027;-79
2024/01/15 05:49:37;;;;;;;;;22.50;21.25;;;;;19.01;35.52;100675.34;6367392;22;45356;-80
2024/01/15 05:52:02;;;;;;;;;20.50;20.00;;;;;19.20;35.79;100700.63;6367887;22;45299;-80
2024/01/15 05:54:29;;;;;;;;;21.75;17.75;;;;;18.84;35.70;100644.50;6367853;22;45388;-79
2024/01/15 05:56:54;;;;;;;;;23.25;20.50;;;;;19.17;35.12;100693.81;6367186;22;52682;-79
2024/01/15 05:59:19;;;;;;;;;20.25;19.00;;;;;18.97;35.67;100666.94;6367370;22;50463;-79
2024/01/15 06:01:45;;;;;;;;;20.50;19.00;;;;;19.22;35.76;100698.63;6367969;22;45343;-79
2024/01/15 06:04:10;;;;;;;;;16.50;16.50;;;;;19.23;35.53;100696.81;6367092;22;45462;-79
2024/01/15 06:06:35;;;;;;;;;21.75;21.00;;;;;19.22;35.67;100696.00;6338924;22;46152;-80
2024/01/15 06:09:05;;;;;;;;;19.25;19.25;;;;;19.13;35.67;100679.28;6367615;22;45316;-79
2024/01/15 06:11:31;;;;;;;;;21.50;18.75;;;;;19.17;35.51;100691.19;6366772;22;45181;-80
2024/01/15 06:13:56;;;;;;;;;20.25;17.75;;;;;19.22;35.86;100701.28;6367118;22;45356;-80
2024/01/15 06:16:23;;;;;;;;;19.25;19.25;;;;;19.02;35.60;100672.53;6367250;22;46142;-79
2024/01/15 06:18:49;;;;;;;;;19.50;18.00;;;;;19.21;35.53;100696.13;6367890;22;45271;-79
2024/01/15 06:21:15;;;;;;;;;16.75;16.75;;;;;19.09;35.61;100692.97;6367604;22;45334;-80
2024/01/15 06:23:40;;;;;;;;;19.00;17.00;;;;;19.21;35.79;100704.06;6367275;22;45455;-79
2024/01/15 06:26:05;;;;;;;;;24.00;19.00;;;;;19.22;35.52;100708.34;6338153;22;60540;-86
2024/01/15 06:28:31;;;;;;;;;15.50;15.25;;;;;19.21;35.66;100707.53;6367027;22;45421;-78
2024/01/15 06:30:57;;;;;;;;;18.25;18.25;;;;;19.22;35.62;100711.81;6367919;22;45882;-83
2024/01/15 06:33:23;;;;;;;;;19.00;17.25;;;;;19.04;35.48;100673.22;6366642;22;45486;-85
2024/01/15 06:35:49;;;;;;;;;18.50;18.00;;;;;19.10;36.20;100676.19;6366871;22;46131;-80
2024/01/15 06:38:14;;;;;;;;;18.00;16.75;;;;;19.24;36.29;100699.28;6366605;22;45252;-83
2024/01/15 06:40:45;;;;;;;;;16.75;16.00;;;;;19.25;36.19;100710.66;6366847;22;45300;-80
2024/01/15 06:43:10;;;;;;;;;18.25;18.00;;;;;19.16;36.49;100700.06;6367137;22;45266;-81
2024/01/15 06:45:36;;;;;;;;;15.50;15.50;;;;;19.06;35.86;100680.94;6368599;22;46469;-87
2024/01/15 06:48:01;;;;;;;;;15.25;15.25;;;;;19.24;36.25;100715.09;6368341;22;45371;-83
2024/01/15 06:50:26;;;;;;;;;16.25;14.50;;;;;19.29;36.42;100711.97;6340059;22;45264;-78
2024/01/15 06:52:51;;;;;;;;;21.25;16.25;;;;;19.06;36.55;100675.69;6367159;22;58117;-79
2024/01/15 06:55:17;;;;;;;;;19.25;17.50;;;;;19.32;36.48;100716.94;6368102;22;46057;-78
2024/01/15 06:57:42;;;;;;;;;17.25;15.75;;;;;19.32;36.50;100721.38;6367977;22;45280;-79
2024/01/15 07:00:09;;;;;;;;;18.75;16.75;;;;;19.29;36.20;100722.53;6368395;22;45246;-77
2024/01/15 07:02:34;;;;;;;;;16.75;16.75;;;;;19.32;36.24;100722.19;6368515;22;45242;-79
2024/01/15 07:04:59;;;;;;;;;17.25;15.25;;;;;19.32;36.33;100731.94;6339448;22;46183;-81
2024/01/15 07:07:28;;;;;;;;;16.25;14.75;;;;;19.16;36.12;100708.00;6368623;22;45211;-81
2024/01/15 07:09:54;;;;;;;;;16.00;14.50;;;;;19.27;36.27;100735.91;6368237;22;45193;-80
2024/01/15 07:12:19;;;;;;;;;15.00;14.00;;;;;19.07;36.20;100704.50;6368736;22;45213;-84
2024/01/15 07:14:45;;;;;;;;;14.50;12.50;;;;;19.32;36.36;100743.31;6368584;22;45292;-79
2024/01/15 07:17:10;;;;;;;;;16.00;13.25;;;;;18.97;36.22;100695.13;6367921;22;45317;-83
2024/01/15 07:19:36;;;;;;;;;17.25;14.00;;;;;19.12;35.99;100722.50;6369147;22;45290;-80
2024/01/15 07:22:01;;;;;;;;;17.00;16.75;;;;;19.29;36.20;100749.75;6368656;22;45403;-80
2024/01/15 07:24:27;;;;;;;;;17.25;15.00;;;;;19.21;36.11;100735.69;6367873;22;46882;-87
2024/01/15 07:26:52;;;;;;;;;14.75;13.25;;;;;19.18;36.12;100731.56;6369009;22;45180;-87
2024/01/15 07:29:17;;;;;;;;;13.75;13.25;;;;;19.26;36.33;100751.88;6369406;22;45176;-86
2024/01/15 07:31:50;;;;;;;;;15.75;14.75;;;;;19.32;36.23;100756.50;6370124;22;45217;-90
2024/01/15 07:34:16;;;;;;;;;13.00;13.00;;;;;19.17;36.32;100729.91;6368777;22;45295;-79
2024/01/15 07:36:42;;;;;;;;;16.25;16.25;;;;;19.23;36.56;100752.22;6368616;22;45304;-78
2024/01/15 07:39:07;;;;;;;;;16.50;14.75;;;;;19.32;36.38;100753.88;6367899;22;45312;-79
2024/01/15 07:41:32;;;;;;;;;14.50;14.50;;;;;19.33;36.36;100759.97;6368249;22;45380;-78
2024/01/15 07:43:57;;;;;;;;;18.50;13.00;;;;;19.33;36.35;100758.16;6368136;22;53627;-77
2024/01/15 07:46:24;;;;;;;;;15.50;13.00;;;;;19.20;36.21;100742.81;6368593;22;45255;-79
2024/01/15 07:48:55;;;;;;;;;13.25;12.50;;;;;19.34;36.54;100761.59;6367967;22;45158;-78
2024/01/15 07:51:21;;;;;;;;;12.50;11.25;;;;;19.34;36.27;100764.25;6367727;22;45447;-79
2024/01/15 07:53:46;;;;;;;;;11.75;11.75;;;;;19.33;36.19;100768.72;6367664;22;45212;-79
2024/01/15 07:56:12;;;;;;;;;10.00;8.50;;;;;19.33;36.47;100763.44;6367910;22;45266;-77
2024/01/15 07:58:37;;;;;;;;;11.50;10.75;;;;;19.33;36.17;100774.00;6368532;22;45217;-76
2024/01/15 08:01:02;;;;;;;;;14.75;13.75;;;;;19.11;36.22;100741.94;6368612;22;45360;-78
2024/01/15 08:03:28;;;;;;;;;15.00;11.00;;;;;19.35;36.42;100776.44;6367781;22;47154;-78
2024/01/15 08:05:54;;;;;;;;;9.00;9.00;;;;;19.34;36.46;100780.06;6367204;22;62053;-78
2024/01/15 08:08:21;;;;;;;;;14.00;14.00;;;;;19.23;36.21;100766.22;6367728;22;45673;-76
2024/01/15 08:10:46;;;;;;;;;12.50;12.00;;;;;19.25;36.22;100780.09;6368213;22;45423;-76
2024/01/15 08:13:11;;;;;;;;;14.75;13.25;;;;;19.35;36.15;100798.38;6367689;22;47129;-76
2024/01/15 08:15:37;;;;;;;;;12.75;12.25;;;;;19.26;36.19;100787.00;6368275;22;45451;-77
2024/01/15 08:18:02;;;;;;;;;13.50;11.00;;;;;19.35;36.18;100798.38;6368493;22;45274;-79
2024/01/15 08:20:28;;;;;;;;;12.00;10.75;;;;;19.34;36.13;100803.81;6368010;22;45438;-78
2024/01/15 08:22:53;;;;;;;;;12.00;11.00;;;;;19.00;36.25;100750.97;6367349;22;46390;-79
2024/01/15 08:25:18;;;;;;;;;10.50;10.50;;;;;19.06;36.39;100765.34;6367867;22;50911;-78
2024/01/15 08:27:44;;;;;;;;;11.00;11.00;;;;;19.35;36.14;100814.22;6340028;22;45299;-79
2024/01/15 08:30:10;;;;;;;;;12.50;11.25;;;;;19.23;36.57;100797.84;6368354;22;45360;-78
2024/01/15 08:32:40;;;;;;;;;11.00;11.00;;;;;19.32;36.33;100803.16;6339628;22;47178;-78
2024/01/15 08:35:06;;;;;;;;;11.75;11.00;;;;;19.34;36.37;100804.63;6367207;22;45203;-78
2024/01/15 08:37:31;;;;;;;;;11.50;10.00;;;;;19.33;36.06;100805.66;6367916;22;45126;-79
2024/01/15 08:39:56;;;;;;;;;8.50;7.75;;;;;19.26;36.21;100799.34;6367662;22;45434;-79
2024/01/15 08:42:22;;;;;;;;;9.25;9.25;;;;;19.33;36.50;100815.38;6367947;22;46188;-80
2024/01/15 08:44:47;;;;;;;;;11.00;8.00;;;;;19.29;36.36;100809.59;6368125;22;45279;-78
2024/01/15 08:47:12;;;;;;;;;10.00;10.00;;;;;19.32;36.20;100819.81;6368041;22;45248;-77
2024/01/15 08:49:39;;;;;;;;;15.00;11.75;;;;;19.18;36.27;100797.53;6367993;22;45202;-79
2024/01/15 08:52:05;;;;;;;;;10.00;10.00;;;;;19.17;36.41;100793.22;6367628;22;46191;-78
2024/01/15 08:54:30;;;;;;;;;10.75;10.75;;;;;19.17;36.42;100798.50;6367548;22;45294;-79
2024/01/15 08:56:55;;;;;;;;;10.00;9.75;;;;;19.23;36.30;100807.59;6367777;22;45286;-77
2024/01/15 08:59:24;;;;;;;;;14.50;13.00;;;;;19.14;36.22;100796.19;6367723;22;48695;-80
2024/01/15 09:01:50;;;;;;;;;13.75;10.25;;;;;19.22;36.60;100809.41;6339037;22;46095;-78
2024/01/15 09:04:15;;;;;;;;;10.75;9.50;;;;;19.32;36.28;100829.53;6367135;22;45214;-77
2024/01/15 09:06:44;;;;;;;;;11.25;11.25;;;;;19.32;36.36;100826.91;6368162;22;45173;-78
2024/01/15 09:09:10;;;;;;;;;10.00;9.00;;;;;19.17;36.27;100809.88;6368465;22;45315;-79
2024/01/15 09:11:35;;;;;;;;;11.50;11.50;;;;;19.32;36.40;100827.72;6366604;22;45350;-78
2024/01/15 09:14:00;;;;;;;;;11.00;10.25;;;;;19.32;36.34;100816.34;6367194;22;63323;-79
2024/01/15 09:16:26;;;;;;;;;10.25;9.25;;;;;19.32;36.50;100817.19;6367498;22;45249;-79
2024/01/15 09:18:51;;;;;;;;;12.75;11.00;;;;;19.34;36.35;100819.63;6367222;22;45310;-80
2024/01/15 09:21:16;;;;;;;;;13.75;11.25;;;;;19.33;36.34;100826.75;6339493;22;45818;-80
2024/01/15 09:23:42;;;;;;;;;12.75;11.50;;;;;19.34;36.22;100817.00;6367704;22;54948;-79
2024/01/15 09:26:09;;;;;;;;;11.75;9.75;;;;;19.35;36.14;100819.50;6367737;22;45214;-79
2024/01/15 09:28:34;;;;;;;;;10.75;10.75;;;;;19.35;36.15;100827.41;6368176;22;45214;-79
2024/01/15 09:30:59;;;;;;;;;10.50;10.00;;;;;19.35;36.29;100816.84;6367852;22;45214;-80
2024/01/15 09:33:25;;;;;;;;;10.00;9.75;;;;;19.35;36.33;100826.56;6367508;22;45221;-79
2024/01/15 09:35:50;;;;;;;;;8.00;7.00;;;;;19.38;36.17;100831.53;6338520;22;50328;-79
2024/01/15 09:38:15;;;;;;;;;9.50;8.75;;;;;19.40;36.34;100830.38;6339578;22;45216;-80
2024/01/15 09:40:43;;;;;;;;;8.00;8.00;;;;;19.43;36.20;100828.41;6339366;22;47903;-79
2024/01/15 09:43:08;;;;;;;;;8.75;8.75;;;;;19.44;36.21;100824.78;6367881;22;45390;-77
2024/01/15 09:45:34;;;;;;;;;12.25;10.75;;;;;19.45;35.95;100821.16;6367409;22;45221;-79
2024/01/15 09:47:59;;;;;;;;;9.00;9.00;;;;;19.35;35.85;100816.84;6367464;22;45398;-79
2024/01/15 09:50:25;;;;;;;;;10.00;9.00;;;;;19.33;36.06;100821.47;6367743;22;45225;-79
2024/01/15 09:52:51;;;;;;;;;11.00;9.25;;;;;19.48;36.23;100840.13;6367808;22;45308;-79
2024/01/15 09:55:17;;;;;;;;;8.75;8.75;;;;;19.38;36.08;100832.38;6367520;22;45346;-80
2024/01/15 09:57:45;;;;;;;;;9.00;9.00;;;;;19.49;36.08;100846.25;6367825;22;45438;-79
2024/01/15 10:00:11;;;;;;;;;11.50;11.00;;;;;19.46;36.04;100846.56;6367095;22;47333;-79
2024/01/15 10:02:36;;;;;;;;;8.25;7.50;;;;;19.51;36.03;100853.00;6367227;22;45265;-78
2024/01/15 10:05:02;;;;;;;;;10.25;9.75;;;;;19.50;35.81;100851.34;6367501;22;46333;-79
2024/01/15 10:07:29;;;;;;;;;9.00;8.75;;;;;19.38;36.06;100829.72;6367333;22;45289;-78
2024/01/15 10:09:54;;;;;;;;;8.75;8.75;;;;;19.53;35.97;100849.34;6367067;22;46970;-79
2024/01/15 10:12:22;;;;;;;;;11.00;8.50;;;;;19.32;36.00;100824.25;6367491;22;45304;-78
2024/01/15 10:14:49;;;;;;;;;8.75;8.75;;;;;19.35;35.90;100835.31;6367774;22;45228;-77
2024/01/15 10:17:15;;;;;;;;;10.00;9.50;;;;;19.44;35.94;100851.97;6367844;22;45200;-78
2024/01/15 10:19:41;;;;;;;;;9.75;8.25;;;;;19.37;36.17;100840.44;6368771;22;45288;-79
2024/01/15 10:22:08;;;;;;;;;8.75;8.50;;;;;19.54;36.02;100865.03;6368432;22;45242;-79
2024/01/15 10:24:40;;;;;;;;;7.25;7.25;;;;;19.54;36.05;100864.22;6368585;22;45245;-79
2024/01/15 10:27:09;;;;;;;;;8.00;8.00;;;;;19.51;35.86;100862.72;6368632;22;45240;-79
2024/01/15 10:29:35;;;;;;;;;10.25;10.25;;;;;19.32;35.99;100835.66;6368141;22;46185;-79
2024/01/15 10:32:01;;;;;;;;;11.00;8.25;;;;;19.51;36.04;100871.47;6340200;22;45268;-80
2024/01/15 10:34:27;;;;;;;;;9.75;8.00;;;;;19.47;35.91;100870.13;6368472;22;45298;-79
2024/01/15 10:36:55;;;;;;;;;7.25;7.00;;;;;19.51;36.00;100879.41;6368459;22;45444;-79
2024/01/15 10:39:24;;;;;;;;;7.25;6.75;;;;;19.46;35.93;100871.13;6368731;22;45920;-79
2024/01/15 10:41:50;;;;;;;;;8.00;7.75;;;;;19.50;36.04;100875.09;6368319;22;45232;-80
2024/01/15 10:44:16;;;;;;;;;10.50;9.00;;;;;19.44;35.95;100869.66;6368743;22;45236;-79
2024/01/15 10:46:43;;;;;;;;;9.00;7.25;;;;;19.51;35.96;100882.03;6368478;22;45360;-79
2024/01/15 10:49:10;;;;;;;;;8.25;8.25;;;;;19.36;35.86;100859.91;6368640;22;46192;-80
2024/01/15 10:51:36;;;;;;;;;9.25;7.50;;;;;19.42;35.94;100861.03;6368332;22;45213;-79
2024/01/15 10:54:01;;;;;;;;;9.25;8.25;;;;;19.52;35.89;100882.84;6368798;22;45274;-79
2024/01/15 10:56:29;;;;;;;;;8.00;7.25;;;;;19.48;35.78;100882.34;6368820;22;45334;-79
2024/01/15 10:58:56;;;;;;;;;6.25;6.25;;;;;19.53;35.75;100886.31;6368657;22;46337;-77
2024/01/15 11:01:22;;;;;;;;;8.00;7.50;;;;;19.53;35.71;100886.31;6368487;22;45288;-79
2024/01/15 11:03:48;;;;;;;;;7.50;7.00;;;;;19.53;35.80;100888.94;6368270;22;45378;-78
2024/01/15 11:06:19;;;;;;;;;8.75;7.75;;;;;19.35;35.97;100855.59;6368310;22;45228;-79